createdAt,value
2018-12-03T00:01:11.737Z,18.73
2018-12-03T00:03:42.332Z,18.77
2018-12-03T00:06:11.819Z,17.70
2018-12-03T00:08:41.411Z,17.23
2018-12-03T00:11:11.001Z,17.33
2018-12-03T00:13:40.563Z,16.90
2018-12-03T00:16:10.064Z,17.00
2018-12-03T00:18:39.757Z,17.10
2018-12-03T00:21:09.399Z,16.77
2018-12-03T00:23:39.015Z,18.70
2018-12-03T00:26:08.634Z,16.80
2018-12-03T00:28:38.144Z,16.07
2018-12-03T00:31:07.788Z,15.40
2018-12-03T00:33:37.727Z,14.67
2018-12-03T00:36:07.316Z,14.90
2018-12-03T00:38:36.949Z,15.30
2018-12-03T00:41:06.545Z,18.90
2018-12-03T00:43:36.724Z,18.53
2018-12-03T00:46:06.212Z,15.73
2018-12-03T00:48:36.177Z,14.87
2018-12-03T00:51:06.124Z,13.50
2018-12-03T00:53:35.692Z,14.63
2018-12-03T00:56:05.490Z,13.87
2018-12-03T00:58:34.956Z,13.10
2018-12-03T01:01:04.913Z,12.20
2018-12-03T01:03:34.403Z,11.60
2018-12-03T01:06:04.308Z,10.90
2018-12-03T01:08:33.947Z,13.23
2018-12-03T01:11:03.638Z,13.90
2018-12-03T01:13:33.309Z,13.80
2018-12-03T01:16:02.852Z,14.60
2018-12-03T01:18:32.725Z,13.70
2018-12-03T01:21:02.234Z,12.83
2018-12-03T01:23:32.000Z,11.30
2018-12-03T01:26:01.631Z,11.80
2018-12-03T01:28:31.172Z,11.30
2018-12-03T01:31:00.743Z,11.20
2018-12-03T01:33:30.320Z,9.97
2018-12-03T01:35:59.946Z,10.67
2018-12-03T01:38:29.508Z,10.87
2018-12-03T01:40:59.124Z,10.93
2018-12-03T01:43:28.710Z,11.10
2018-12-03T01:45:58.515Z,10.53
2018-12-03T01:48:28.012Z,11.10
2018-12-03T01:50:57.815Z,10.33
2018-12-03T01:53:27.303Z,9.33
2018-12-03T01:55:56.893Z,9.10
2018-12-03T01:58:26.865Z,9.77
2018-12-03T02:00:56.695Z,9.30
2018-12-03T02:03:26.317Z,8.50
2018-12-03T02:05:56.285Z,9.23
2018-12-03T02:08:25.865Z,8.63
2018-12-03T02:10:55.408Z,8.30
2018-12-03T02:13:25.004Z,8.27
2018-12-03T02:15:54.769Z,8.50
2018-12-03T02:18:24.336Z,8.03
2018-12-03T02:20:53.803Z,8.10
2018-12-03T02:23:23.432Z,7.73
2018-12-03T02:25:53.069Z,8.30
2018-12-03T02:28:22.834Z,8.13
2018-12-03T02:30:52.617Z,7.87
2018-12-03T02:33:22.095Z,7.77
2018-12-03T02:35:51.584Z,8.57
2018-12-03T02:38:21.819Z,8.60
2018-12-03T02:40:51.492Z,8.00
2018-12-03T02:43:21.256Z,6.83
2018-12-03T02:45:50.893Z,7.43
2018-12-03T02:48:20.837Z,7.37
2018-12-03T02:50:50.484Z,7.03
2018-12-03T02:53:20.109Z,6.93
2018-12-03T02:55:50.141Z,6.87
2018-12-03T02:58:19.863Z,7.20
2018-12-03T03:00:49.480Z,7.20
2018-12-03T03:03:19.072Z,6.00
2018-12-03T03:05:48.689Z,6.40
2018-12-03T03:08:18.618Z,6.30
2018-12-03T03:10:48.168Z,6.90
2018-12-03T03:13:17.665Z,6.30
2018-12-03T03:15:47.632Z,6.67
2018-12-03T03:18:17.143Z,6.60
2018-12-03T03:20:46.975Z,6.57
2018-12-03T03:23:16.910Z,6.47
2018-12-03T03:25:46.753Z,5.73
2018-12-03T03:28:16.300Z,6.50
2018-12-03T03:30:46.308Z,6.43
2018-12-03T03:33:16.036Z,6.20
2018-12-03T03:35:45.613Z,6.50
2018-12-03T03:38:15.219Z,6.20
2018-12-03T03:40:44.860Z,6.37
2018-12-03T03:43:14.453Z,6.60
2018-12-03T03:45:44.325Z,5.90
2018-12-03T03:48:14.224Z,6.10
2018-12-03T03:50:43.872Z,6.27
2018-12-03T03:53:13.522Z,6.07
2018-12-03T03:55:43.105Z,5.93
2018-12-03T03:58:12.717Z,6.03
2018-12-03T04:00:42.287Z,5.73
2018-12-03T04:03:12.067Z,5.80
2018-12-03T04:05:41.712Z,5.50
2018-12-03T04:08:11.200Z,6.03
2018-12-03T04:10:40.931Z,5.40
2018-12-03T04:13:10.460Z,5.80
2018-12-03T04:15:40.177Z,4.73
2018-12-03T04:18:09.954Z,5.03
2018-12-03T04:20:39.728Z,4.40
2018-12-03T04:23:09.228Z,4.60
2018-12-03T04:25:38.762Z,4.73
2018-12-03T04:28:08.499Z,4.10
2018-12-03T04:30:38.056Z,4.10
2018-12-03T04:33:08.052Z,4.00
2018-12-03T04:35:37.753Z,4.23
2018-12-03T04:38:07.365Z,3.87
2018-12-03T04:40:37.355Z,4.07
2018-12-03T04:43:07.187Z,4.73
2018-12-03T04:45:36.941Z,5.67
2018-12-03T04:48:07.371Z,5.53
2018-12-03T04:50:36.947Z,6.13
2018-12-03T04:53:06.495Z,5.97
2018-12-03T04:55:36.061Z,6.10
2018-12-03T04:58:05.879Z,6.53
2018-12-03T05:00:35.477Z,6.30
2018-12-03T05:03:05.250Z,6.23
2018-12-03T05:05:34.777Z,6.80
2018-12-03T05:08:04.653Z,6.80
2018-12-03T05:10:34.219Z,7.37
2018-12-03T05:13:04.192Z,6.53
2018-12-03T05:15:33.873Z,6.13
2018-12-03T05:18:03.384Z,5.70
2018-12-03T05:20:32.954Z,5.10
2018-12-03T05:23:02.906Z,5.33
2018-12-03T05:25:32.559Z,4.90
2018-12-03T05:28:02.129Z,4.60
2018-12-03T05:30:31.824Z,4.23
2018-12-03T05:33:01.665Z,4.30
2018-12-03T05:35:31.561Z,3.70
2018-12-03T05:38:01.086Z,3.70
2018-12-03T05:40:31.459Z,3.80
2018-12-03T05:43:01.014Z,3.97
2018-12-03T05:45:30.549Z,3.80
2018-12-03T05:48:00.134Z,3.60
2018-12-03T05:50:29.794Z,3.10
2018-12-03T05:52:59.320Z,2.67
2018-12-03T05:55:28.861Z,2.70
2018-12-03T05:57:58.503Z,2.50
2018-12-03T06:00:28.111Z,2.50
2018-12-03T06:02:58.167Z,2.30
2018-12-03T06:05:27.794Z,2.20
2018-12-03T06:07:57.372Z,2.10
2018-12-03T06:10:27.149Z,2.20
2018-12-03T06:12:56.705Z,2.20
2018-12-03T06:15:26.254Z,2.10
2018-12-03T06:17:55.874Z,2.17
2018-12-03T06:20:25.575Z,2.17
2018-12-03T06:22:55.584Z,2.50
2018-12-03T06:25:29.203Z,2.33
2018-12-03T06:27:58.883Z,2.60
2018-12-03T06:30:28.620Z,2.23
2018-12-03T06:32:58.360Z,2.40
2018-12-03T06:35:28.100Z,2.10
2018-12-03T06:37:57.687Z,2.73
2018-12-03T06:40:28.668Z,2.93
2018-12-03T06:42:58.240Z,3.20
2018-12-03T06:45:28.352Z,3.47
2018-12-03T06:48:08.476Z,3.17
2018-12-03T06:50:38.383Z,2.90
2018-12-03T06:53:07.899Z,3.17
2018-12-03T06:55:37.504Z,3.43
2018-12-03T06:58:07.359Z,3.23
2018-12-03T07:00:37.445Z,3.30
2018-12-03T07:03:07.389Z,2.97
2018-12-03T07:05:37.177Z,2.93
2018-12-03T07:08:08.251Z,3.07
2018-12-03T07:10:37.884Z,3.57
2018-12-03T07:13:09.516Z,3.43
2018-12-03T07:15:41.171Z,3.40
2018-12-03T07:18:11.371Z,3.10
2018-12-03T07:20:41.227Z,3.40
2018-12-03T07:23:10.832Z,3.33
2018-12-03T07:25:40.353Z,3.40
2018-12-03T07:28:10.369Z,3.23
2018-12-03T07:30:39.836Z,3.30
2018-12-03T07:33:09.692Z,2.90
2018-12-03T07:35:39.198Z,2.80
2018-12-03T07:38:08.696Z,2.93
2018-12-03T07:40:38.389Z,3.33
2018-12-03T07:43:07.972Z,3.20
2018-12-03T07:45:37.563Z,3.03
2018-12-03T07:48:07.341Z,2.60
2018-12-03T07:50:36.943Z,3.10
2018-12-03T07:53:06.869Z,3.50
2018-12-03T07:55:36.441Z,4.90
2018-12-03T07:58:13.448Z,4.63
2018-12-03T08:00:47.547Z,5.10
2018-12-03T08:03:17.118Z,5.50
2018-12-03T08:05:47.374Z,6.23
2018-12-03T08:08:17.183Z,5.90
2018-12-03T08:10:54.584Z,6.13
2018-12-03T08:13:24.301Z,5.63
2018-12-03T08:15:53.931Z,5.63
2018-12-03T08:18:24.497Z,6.00
2018-12-03T08:20:55.582Z,7.47
2018-12-03T08:23:35.621Z,7.23
2018-12-03T08:26:06.935Z,6.90
2018-12-03T08:28:36.600Z,5.60
2018-12-03T08:31:06.473Z,4.67
2018-12-03T08:33:36.061Z,3.93
2018-12-03T08:36:06.547Z,3.57
2018-12-03T08:38:36.080Z,3.63
2018-12-03T08:41:06.900Z,3.60
2018-12-03T08:43:36.747Z,3.60
2018-12-03T08:46:08.294Z,3.70
2018-12-03T08:48:41.687Z,3.17
2018-12-03T08:51:12.286Z,3.80
2018-12-03T08:53:44.603Z,4.07
2018-12-03T08:56:14.068Z,4.53
2018-12-03T08:58:43.963Z,4.63
2018-12-03T09:01:18.284Z,4.30
2018-12-03T09:04:00.373Z,3.70
2018-12-03T09:06:29.872Z,4.17
2018-12-03T09:08:59.601Z,4.93
2018-12-03T09:11:29.644Z,4.40
2018-12-03T09:13:59.148Z,3.90
2018-12-03T09:16:28.719Z,3.13
2018-12-03T09:18:58.260Z,2.80
2018-12-03T09:21:27.849Z,2.43
2018-12-03T09:24:00.576Z,2.20
2018-12-03T09:26:30.087Z,1.90
2018-12-03T09:28:59.708Z,1.93
2018-12-03T09:31:29.235Z,2.60
2018-12-03T09:33:59.868Z,2.87
2018-12-03T09:36:30.074Z,3.17
2018-12-03T09:39:30.404Z,3.53
2018-12-03T09:42:00.233Z,4.67
2018-12-03T09:44:29.980Z,3.20
2018-12-03T09:46:59.628Z,2.80
2018-12-03T09:49:29.257Z,9.80
2018-12-03T09:51:58.747Z,7.87
2018-12-03T09:54:28.769Z,5.73
2018-12-03T09:56:58.503Z,5.20
2018-12-03T09:59:28.223Z,5.27
2018-12-03T10:02:00.259Z,4.50
2018-12-03T10:04:41.553Z,5.07
2018-12-03T10:07:19.397Z,5.50
2018-12-03T10:09:48.973Z,6.13
2018-12-03T10:12:18.579Z,6.47
2018-12-03T10:15:10.122Z,6.67
2018-12-03T10:17:39.703Z,6.57
2018-12-03T10:20:12.875Z,6.67
2018-12-03T10:22:48.164Z,7.80
2018-12-03T10:25:17.932Z,7.27
2018-12-03T10:27:47.602Z,7.63
2018-12-03T10:30:23.624Z,7.67
2018-12-03T10:32:53.908Z,6.90
2018-12-03T10:35:25.589Z,6.30
2018-12-03T10:37:55.264Z,5.83
2018-12-03T10:40:25.091Z,7.00
2018-12-03T10:42:54.684Z,8.53
2018-12-03T10:45:26.248Z,7.67
2018-12-03T10:47:57.732Z,6.33
2018-12-03T10:50:27.741Z,5.27
2018-12-03T10:52:57.220Z,4.70
2018-12-03T10:55:26.868Z,7.20
2018-12-03T10:57:56.605Z,7.53
2018-12-03T11:00:43.155Z,8.33
2018-12-03T11:03:30.848Z,10.60
2018-12-03T11:06:16.052Z,10.43
2018-12-03T11:08:46.508Z,10.47
2018-12-03T11:11:22.058Z,10.90
2018-12-03T11:13:52.202Z,10.57
2018-12-03T11:16:33.482Z,10.00
2018-12-03T11:19:03.336Z,9.93
2018-12-03T11:21:34.263Z,11.23
2018-12-03T11:24:04.635Z,14.87
2018-12-03T11:26:37.626Z,15.00
2018-12-03T11:29:08.912Z,13.47
2018-12-03T11:31:38.530Z,21.63
2018-12-03T11:34:08.312Z,17.30
2018-12-03T11:36:48.961Z,13.50
2018-12-03T11:39:54.279Z,11.30
2018-12-03T11:42:25.097Z,12.50
2018-12-03T11:44:54.713Z,13.70
2018-12-03T11:47:24.561Z,16.00
2018-12-03T11:49:54.361Z,15.60
2018-12-03T11:52:23.972Z,20.60
2018-12-03T11:54:53.591Z,28.60
2018-12-03T11:57:23.066Z,23.70
2018-12-03T11:59:52.609Z,20.43
2018-12-03T12:02:22.113Z,17.63
2018-12-03T12:04:51.620Z,17.33
2018-12-03T12:07:21.503Z,15.77
2018-12-03T12:09:51.258Z,15.93
2018-12-03T12:12:21.030Z,15.97
2018-12-03T12:15:21.620Z,15.57
2018-12-03T12:17:50.408Z,17.20
2018-12-03T12:20:20.463Z,17.33
2018-12-03T12:22:50.280Z,17.73
2018-12-03T12:25:20.180Z,17.43
2018-12-03T12:27:52.088Z,19.60
2018-12-03T12:30:22.251Z,19.37
2018-12-03T12:32:51.851Z,20.83
2018-12-03T12:35:21.453Z,19.43
2018-12-03T12:37:56.642Z,20.37
2018-12-03T12:40:22.637Z,20.33
2018-12-03T12:42:52.476Z,24.27
2018-12-03T12:45:28.426Z,23.40
2018-12-03T12:47:57.870Z,25.53
2018-12-03T12:50:27.476Z,25.47
2018-12-03T12:52:57.078Z,23.57
2018-12-03T12:55:27.043Z,22.63
2018-12-03T12:57:56.982Z,23.30
2018-12-03T13:00:26.571Z,23.17
2018-12-03T13:02:56.161Z,22.27
2018-12-03T13:05:28.667Z,22.30
2018-12-03T13:07:57.700Z,22.97
2018-12-03T13:10:27.387Z,22.73
2018-12-03T13:12:56.940Z,22.00
2018-12-03T13:15:48.223Z,21.63
2018-12-03T13:18:17.823Z,20.47
2018-12-03T13:20:47.792Z,21.10
2018-12-03T13:23:17.639Z,20.10
2018-12-03T13:25:47.247Z,19.30
2018-12-03T13:28:16.898Z,20.33
2018-12-03T13:30:46.487Z,19.10
2018-12-03T13:33:16.015Z,19.30
2018-12-03T13:35:45.584Z,20.03
2018-12-03T13:38:15.472Z,19.47
2018-12-03T13:40:45.251Z,19.10
2018-12-03T13:43:15.169Z,18.50
2018-12-03T13:45:44.757Z,18.97
2018-12-03T13:48:14.701Z,20.37
2018-12-03T13:50:44.489Z,20.47
2018-12-03T13:53:14.276Z,20.03
2018-12-03T13:55:44.084Z,21.53
2018-12-03T13:58:13.816Z,22.33
2018-12-03T14:00:43.347Z,21.80
2018-12-03T14:03:15.467Z,21.20
2018-12-03T14:05:49.319Z,20.37
2018-12-03T14:08:42.239Z,20.93
2018-12-03T14:11:59.859Z,17.73
2018-12-03T14:15:33.348Z,18.33
2018-12-03T14:18:39.750Z,17.97
2018-12-03T14:21:30.686Z,19.23
2018-12-03T14:24:01.115Z,18.60
2018-12-03T14:26:30.788Z,17.87
2018-12-03T14:29:00.545Z,16.83
2018-12-03T14:31:30.132Z,18.50
2018-12-03T14:33:59.694Z,18.77
2018-12-03T14:36:29.214Z,18.63
2018-12-03T14:38:58.794Z,18.40
2018-12-03T14:41:28.388Z,17.63
2018-12-03T14:43:57.911Z,18.10
2018-12-03T14:46:27.556Z,17.40
2018-12-03T14:48:57.199Z,16.97
2018-12-03T14:51:26.883Z,17.90
2018-12-03T14:53:56.598Z,19.03
2018-12-03T14:56:26.200Z,17.87
2018-12-03T14:58:55.810Z,17.17
2018-12-03T15:01:25.487Z,16.70
2018-12-03T15:03:55.054Z,16.93
2018-12-03T15:06:24.602Z,16.67
2018-12-03T15:08:54.262Z,17.23
2018-12-03T15:11:24.677Z,16.40
2018-12-03T15:13:54.228Z,17.13
2018-12-03T15:16:24.277Z,17.80
2018-12-03T15:18:54.121Z,17.33
2018-12-03T15:21:23.857Z,20.00
2018-12-03T15:23:53.612Z,19.23
2018-12-03T15:26:23.208Z,19.63
2018-12-03T15:28:52.904Z,18.03
2018-12-03T15:31:22.539Z,17.33
2018-12-03T15:33:52.316Z,17.57
2018-12-03T15:36:22.025Z,17.07
2018-12-03T15:38:51.512Z,17.70
2018-12-03T15:41:21.223Z,17.70
2018-12-03T15:43:50.708Z,18.20
2018-12-03T15:46:20.797Z,18.17
2018-12-03T15:48:51.087Z,18.47
2018-12-03T15:51:21.265Z,19.50
2018-12-03T15:53:51.485Z,17.77
2018-12-03T15:56:21.552Z,18.87
2018-12-03T15:58:51.900Z,19.03
2018-12-03T16:01:22.081Z,35.17
2018-12-03T16:03:52.024Z,38.97
2018-12-03T16:06:21.911Z,32.83
2018-12-03T16:08:52.027Z,29.77
2018-12-03T16:11:25.768Z,26.97
2018-12-03T16:13:56.113Z,26.53
2018-12-03T16:16:31.680Z,26.67
2018-12-03T16:19:01.999Z,24.53
2018-12-03T16:21:32.164Z,23.43
2018-12-03T16:24:02.805Z,21.87
2018-12-03T16:26:34.633Z,21.43
2018-12-03T16:29:05.259Z,20.07
2018-12-03T16:31:36.583Z,19.60
2018-12-03T16:34:07.672Z,17.90
2018-12-03T16:36:38.776Z,18.73
2018-12-03T16:39:09.788Z,22.47
2018-12-03T16:41:40.192Z,20.40
2018-12-03T16:44:10.580Z,19.87
2018-12-03T16:46:40.916Z,19.43
2018-12-03T16:49:11.335Z,20.77
2018-12-03T16:51:41.856Z,21.43
2018-12-03T16:54:12.251Z,21.87
2018-12-03T16:56:42.688Z,20.30
2018-12-03T16:59:12.993Z,20.97
2018-12-03T17:01:43.361Z,22.03
2018-12-03T17:04:13.907Z,27.70
2018-12-03T17:06:44.923Z,29.47
2018-12-03T17:09:16.635Z,35.70
2018-12-03T17:11:51.110Z,34.93
2018-12-03T17:14:31.926Z,33.77
2018-12-03T17:17:02.416Z,30.37
2018-12-03T17:19:33.014Z,28.97
2018-12-03T17:22:20.472Z,27.50
2018-12-03T17:24:51.192Z,26.97
2018-12-03T17:27:22.478Z,27.70
2018-12-03T17:29:53.795Z,26.20
2018-12-03T17:32:24.570Z,22.27
2018-12-03T17:34:54.938Z,32.97
2018-12-03T17:37:27.013Z,34.77
2018-12-03T17:39:57.394Z,30.17
2018-12-03T17:42:27.884Z,28.97
2018-12-03T17:44:58.370Z,30.33
2018-12-03T17:47:28.860Z,29.07
2018-12-03T17:49:59.339Z,28.43
2018-12-03T17:52:29.868Z,26.67
2018-12-03T17:55:00.286Z,26.57
2018-12-03T17:57:30.623Z,27.90
2018-12-03T18:00:05.301Z,26.63
2018-12-03T18:02:38.184Z,27.83
2018-12-03T18:05:08.629Z,27.30
2018-12-03T18:07:39.385Z,25.63
2018-12-03T18:10:11.576Z,25.57
2018-12-03T18:12:42.127Z,26.43
2018-12-03T18:15:47.426Z,26.33
2018-12-03T18:18:17.773Z,24.20
2018-12-03T18:20:48.179Z,31.03
2018-12-03T18:23:18.696Z,35.50
2018-12-03T18:25:49.128Z,36.93
2018-12-03T18:28:19.628Z,33.93
2018-12-03T18:30:50.076Z,31.63
2018-12-03T18:33:20.674Z,30.50
2018-12-03T18:35:50.983Z,32.73
2018-12-03T18:38:21.849Z,34.57
2018-12-03T18:40:52.302Z,33.87
2018-12-03T18:43:22.752Z,36.10
2018-12-03T18:45:53.178Z,32.73
2018-12-03T18:48:23.669Z,33.73
2018-12-03T18:50:55.556Z,38.60
2018-12-03T18:53:27.820Z,42.90
2018-12-03T18:55:58.319Z,40.13
2018-12-03T18:58:51.238Z,38.63
2018-12-03T19:01:21.646Z,35.17
2018-12-03T19:03:52.086Z,28.57
2018-12-03T19:06:25.549Z,26.47
2018-12-03T19:08:56.128Z,20.13
2018-12-03T19:11:26.846Z,20.17
2018-12-03T19:13:58.308Z,23.20
2018-12-03T19:16:40.717Z,22.17
2018-12-03T19:19:11.136Z,18.47
2018-12-03T19:21:41.673Z,16.97
2018-12-03T19:24:12.074Z,16.13
2018-12-03T19:26:44.368Z,19.37
2018-12-03T19:29:14.821Z,24.43
2018-12-03T19:31:45.379Z,25.43
2018-12-03T19:34:15.839Z,27.07
2018-12-03T19:36:46.312Z,37.57
2018-12-03T19:39:16.802Z,37.10
2018-12-03T19:41:47.179Z,35.27
2018-12-03T19:44:17.629Z,31.53
2018-12-03T19:46:48.125Z,35.17
2018-12-03T19:49:19.144Z,35.13
2018-12-03T19:51:52.485Z,36.37
2018-12-03T19:54:23.115Z,38.23
2018-12-03T19:56:53.492Z,35.97
2018-12-03T19:59:25.744Z,35.33
2018-12-03T20:01:56.296Z,34.57
2018-12-03T20:04:43.631Z,33.53
2018-12-03T20:07:14.127Z,39.63
2018-12-03T20:09:44.584Z,37.97
2018-12-03T20:12:15.041Z,34.47
2018-12-03T20:15:16.313Z,35.07
2018-12-03T20:17:46.094Z,36.00
2018-12-03T20:20:20.187Z,35.40
2018-12-03T20:22:59.668Z,35.87
2018-12-03T20:25:41.269Z,36.93
2018-12-03T20:28:15.730Z,35.97
2018-12-03T20:31:31.976Z,41.60
2018-12-03T20:34:29.468Z,46.80
2018-12-03T20:37:34.389Z,42.03
2018-12-03T20:40:30.350Z,38.83
2018-12-03T20:43:07.963Z,35.20
2018-12-03T20:46:07.648Z,33.03
2018-12-03T20:49:21.420Z,30.97
2018-12-03T20:51:54.138Z,27.67
2018-12-03T20:54:24.624Z,24.50
2018-12-03T20:56:55.143Z,23.80
2018-12-03T20:59:25.583Z,21.57
2018-12-03T21:01:56.000Z,20.60
2018-12-03T21:04:26.525Z,20.50
2018-12-03T21:06:56.923Z,21.10
2018-12-03T21:09:27.474Z,21.80
2018-12-03T21:11:57.947Z,19.80
2018-12-03T21:14:47.939Z,17.97
2018-12-03T21:17:18.875Z,16.50
2018-12-03T21:19:54.056Z,15.60
2018-12-03T21:22:24.459Z,16.67
2018-12-03T21:24:54.951Z,18.60
2018-12-03T21:27:40.387Z,19.77
2018-12-03T21:30:11.897Z,26.07
2018-12-03T21:32:42.294Z,19.93
2018-12-03T21:35:12.645Z,10.13
2018-12-03T21:37:43.203Z,8.40
2018-12-03T21:40:13.665Z,9.20
2018-12-03T21:42:44.247Z,9.33
2018-12-03T21:45:14.759Z,9.07
2018-12-03T21:47:46.808Z,15.17
2018-12-03T21:50:17.272Z,18.43
2018-12-03T21:52:47.836Z,19.00
2018-12-03T21:55:18.377Z,20.37
2018-12-03T21:57:48.915Z,22.70
2018-12-03T22:00:21.311Z,24.13
2018-12-03T22:02:51.655Z,31.10
2018-12-03T22:05:22.736Z,27.13
2018-12-03T22:07:53.231Z,28.67
2018-12-03T22:10:23.900Z,26.30
2018-12-03T22:12:54.289Z,26.80
2018-12-03T22:15:54.610Z,27.33
2018-12-03T22:18:24.760Z,26.00
2018-12-03T22:20:55.040Z,26.33
2018-12-03T22:23:25.295Z,26.97
2018-12-03T22:25:55.439Z,26.67
2018-12-03T22:28:24.922Z,23.77
2018-12-03T22:30:54.531Z,22.50
2018-12-03T22:33:24.357Z,21.20
2018-12-03T22:35:54.191Z,19.43
2018-12-03T22:38:24.363Z,18.60
2018-12-03T22:40:54.152Z,17.57
2018-12-03T22:43:23.742Z,16.77
2018-12-03T22:45:53.322Z,15.47
2018-12-03T22:48:22.895Z,15.60
2018-12-03T22:50:52.541Z,15.97
2018-12-03T22:53:22.414Z,15.30
2018-12-03T22:55:52.241Z,15.40
2018-12-03T22:58:22.261Z,15.60
2018-12-03T23:01:06.153Z,14.13
2018-12-03T23:03:36.152Z,13.30
2018-12-03T23:06:06.017Z,11.40
2018-12-03T23:08:35.683Z,11.10
2018-12-03T23:11:05.420Z,11.03
2018-12-03T23:13:35.148Z,10.10
2018-12-03T23:16:14.160Z,10.07
2018-12-03T23:18:44.074Z,9.90
2018-12-03T23:21:14.163Z,9.33
2018-12-03T23:23:45.034Z,9.23
2018-12-03T23:26:14.701Z,9.47
2018-12-03T23:28:44.308Z,10.90
2018-12-03T23:32:44.914Z,10.13
2018-12-03T23:35:13.665Z,9.70
2018-12-03T23:37:42.111Z,8.80
2018-12-03T23:40:10.663Z,8.80
2018-12-03T23:42:39.277Z,9.30
2018-12-03T23:45:08.104Z,8.07
2018-12-03T23:47:36.414Z,6.90
2018-12-03T23:50:05.164Z,6.77
2018-12-03T23:52:34.011Z,7.07
2018-12-03T23:55:02.573Z,7.03
2018-12-03T23:57:30.875Z,6.70
2018-12-03T23:59:59.258Z,6.10
